Time,TemperatureF,DewpointF,PressureIn,WindDirection,WindDirectionDegrees,WindSpeedMPH,WindSpeedGustMPH,Humidity,HourlyPrecipIn,Conditions,Clouds,dailyrainin,SoftwareType,DateUTC
2013-06-17 01:00:00,49.0,-99.9,-100.00,East,88,5.0,8.0,-999,0.00,,,-99.99,,2013-06-17 07:00:00,
2013-06-17 01:43:00,49.0,-99.9,-100.00,East,88,5.0,8.0,-999,0.00,,,-99.99,,2013-06-17 07:43:00,
2013-06-17 02:00:00,49.0,-99.9,-100.00,East,90,5.0,8.0,-999,0.00,,,-99.99,,2013-06-17 08:00:00,
2013-06-17 02:43:00,49.0,-99.9,-100.00,East,90,5.0,8.0,-999,0.00,,,-99.99,,2013-06-17 08:43:00,
2013-06-17 02:53:00,49.0,-99.9,-100.00,East,90,5.0,8.0,-999,0.00,,,-99.99,,2013-06-17 08:53:00,
2013-06-17 03:00:00,49.0,-99.9,-100.00,East,92,5.0,8.0,-999,0.00,,,-99.99,,2013-06-17 09:00:00,
2013-06-17 03:34:00,49.0,-99.9,-100.00,East,92,5.0,8.0,-999,0.00,,,-99.99,,2013-06-17 09:34:00,
2013-06-17 03:44:00,49.0,-99.9,-100.00,East,92,5.0,8.0,-999,0.00,,,-99.99,,2013-06-17 09:44:00,
2013-06-17 03:53:00,49.0,-99.9,-100.00,East,92,5.0,8.0,-999,0.00,,,-99.99,,2013-06-17 09:53:00,
2013-06-17 04:00:00,47.0,-99.9,-100.00,East,88,5.0,9.0,-999,0.00,,,-99.99,,2013-06-17 10:00:00,
2013-06-17 04:33:00,47.0,-99.9,-100.00,East,88,5.0,9.0,-999,0.00,,,-99.99,,2013-06-17 10:33:00,
2013-06-17 04:43:00,47.0,-99.9,-100.00,East,88,5.0,9.0,-999,0.00,,,-99.99,,2013-06-17 10:43:00,
2013-06-17 04:54:00,47.0,-99.9,-100.00,East,88,5.0,9.0,-999,0.00,,,-99.99,,2013-06-17 10:54:00,
2013-06-17 05:00:00,47.0,-99.9,-100.00,East,87,6.0,8.0,-999,0.00,,,-99.99,,2013-06-17 11:00:00,
2013-06-17 05:43:00,47.0,-99.9,-100.00,East,87,6.0,8.0,-999,0.00,,,-99.99,,2013-06-17 11:43:00,
2013-06-17 05:53:00,47.0,-99.9,-100.00,East,87,6.0,8.0,-999,0.00,,,-99.99,,2013-06-17 11:53:00,
2013-06-17 06:00:00,45.0,-99.9,-100.00,East,88,5.0,8.0,-999,0.00,,,-99.99,,2013-06-17 12:00:00,
2013-06-17 06:43:00,45.0,-99.9,-100.00,East,88,5.0,8.0,-999,0.00,,,-99.99,,2013-06-17 12:43:00,
2013-06-17 06:53:00,45.0,-99.9,-100.00,East,88,5.0,8.0,-999,0.00,,,-99.99,,2013-06-17 12:53:00,
2013-06-17 08:00:00,51.0,-99.9,-100.00,East,82,6.0,8.0,-999,0.00,,,-99.99,,2013-06-17 14:00:00,
2013-06-17 08:34:00,51.0,-99.9,-100.00,East,82,6.0,8.0,-999,0.00,,,-99.99,,2013-06-17 14:34:00,
2013-06-17 08:44:00,51.0,-99.9,-100.00,East,82,6.0,8.0,-999,0.00,,,-99.99,,2013-06-17 14:44:00,
2013-06-17 08:54:00,51.0,-99.9,-100.00,East,82,6.0,8.0,-999,0.00,,,-99.99,,2013-06-17 14:54:00,
2013-06-17 09:00:00,62.0,-99.9,-100.00,East,95,3.0,7.0,-999,0.00,,,-99.99,,2013-06-17 15:00:00,
2013-06-17 09:33:00,62.0,-99.9,-100.00,East,95,3.0,7.0,-999,0.00,,,-99.99,,2013-06-17 15:33:00,
2013-06-17 09:43:00,62.0,-99.9,-100.00,East,95,3.0,7.0,-999,0.00,,,-99.99,,2013-06-17 15:43:00,
2013-06-17 09:53:00,62.0,-99.9,-100.00,East,95,3.0,7.0,-999,0.00,,,-99.99,,2013-06-17 15:53:00,
2013-06-17 11:00:00,71.0,-99.9,-100.00,West,273,5.0,10.0,-999,0.00,,,-99.99,,2013-06-17 17:00:00,
2013-06-17 11:43:00,71.0,-99.9,-100.00,West,273,5.0,10.0,-999,0.00,,,-99.99,,2013-06-17 17:43:00,
2013-06-17 11:53:00,71.0,-99.9,-100.00,West,273,5.0,10.0,-999,0.00,,,-99.99,,2013-06-17 17:53:00,
2013-06-17 12:00:00,73.0,-99.9,-100.00,SSE,151,4.0,11.0,-999,0.00,,,-99.99,,2013-06-17 18:00:00,
2013-06-17 12:33:00,73.0,-99.9,-100.00,SSE,151,4.0,11.0,-999,0.00,,,-99.99,,2013-06-17 18:33:00,
2013-06-17 12:43:00,73.0,-99.9,-100.00,SSE,151,4.0,11.0,-999,0.00,,,-99.99,,2013-06-17 18:43:00,
2013-06-17 12:53:00,73.0,-99.9,-100.00,SSE,151,4.0,11.0,-999,0.00,,,-99.99,,2013-06-17 18:53:00,
2013-06-17 13:00:00,74.0,-99.9,-100.00,SW,214,4.0,13.0,-999,0.00,,,-99.99,,2013-06-17 19:00:00,
2013-06-17 13:33:00,74.0,-99.9,-100.00,SW,214,4.0,13.0,-999,0.00,,,-99.99,,2013-06-17 19:33:00,
2013-06-17 13:44:00,74.0,-99.9,-100.00,SW,214,4.0,13.0,-999,0.00,,,-99.99,,2013-06-17 19:44:00,
2013-06-17 13:54:00,74.0,-99.9,-100.00,SW,214,4.0,13.0,-999,0.00,,,-99.99,,2013-06-17 19:54:00,
2013-06-17 14:00:00,74.0,-99.9,-100.00,WNW,291,6.0,16.0,-999,0.00,,,-99.99,,2013-06-17 20:00:00,
2013-06-17 14:44:00,74.0,-99.9,-100.00,WNW,291,6.0,16.0,-999,0.00,,,-99.99,,2013-06-17 20:44:00,
2013-06-17 14:53:00,74.0,-99.9,-100.00,WNW,291,6.0,16.0,-999,0.00,,,-99.99,,2013-06-17 20:53:00,
2013-06-17 15:00:00,73.0,-99.9,-100.00,WNW,291,7.0,18.0,-999,0.00,,,-99.99,,2013-06-17 21:00:00,
2013-06-17 15:33:00,73.0,-99.9,-100.00,WNW,291,7.0,18.0,-999,0.00,,,-99.99,,2013-06-17 21:33:00,
2013-06-17 15:43:00,73.0,-99.9,-100.00,WNW,291,7.0,18.0,-999,0.00,,,-99.99,,2013-06-17 21:43:00,
2013-06-17 15:52:00,73.0,-99.9,-100.00,WNW,291,7.0,18.0,-999,0.00,,,-99.99,,2013-06-17 21:52:00,
2013-06-17 16:00:00,74.0,-99.9,-100.00,WNW,296,7.0,19.0,-999,0.00,,,-99.99,,2013-06-17 22:00:00,
2013-06-17 16:34:00,74.0,-99.9,-100.00,WNW,296,7.0,19.0,-999,0.00,,,-99.99,,2013-06-17 22:34:00,
2013-06-17 16:43:00,74.0,-99.9,-100.00,WNW,296,7.0,19.0,-999,0.00,,,-99.99,,2013-06-17 22:43:00,
2013-06-17 16:54:00,74.0,-99.9,-100.00,WNW,296,7.0,19.0,-999,0.00,,,-99.99,,2013-06-17 22:54:00,
2013-06-17 17:00:00,74.0,-99.9,-100.00,WNW,295,9.0,24.0,-999,0.00,,,-99.99,,2013-06-17 23:00:00,
2013-06-17 17:33:00,74.0,-99.9,-100.00,WNW,295,9.0,24.0,-999,0.00,,,-99.99,,2013-06-17 23:33:00,
2013-06-17 17:43:00,74.0,-99.9,-100.00,WNW,295,9.0,24.0,-999,0.00,,,-99.99,,2013-06-17 23:43:00,
2013-06-17 17:53:00,74.0,-99.9,-100.00,WNW,295,9.0,24.0,-999,0.00,,,-99.99,,2013-06-17 23:53:00,
2013-06-17 18:00:00,74.0,-99.9,-100.00,WNW,295,8.0,18.0,-999,0.00,,,-99.99,,2013-06-18 00:00:00,
2013-06-17 18:43:00,74.0,-99.9,-100.00,WNW,295,8.0,18.0,-999,0.00,,,-99.99,,2013-06-18 00:43:00,
2013-06-17 18:53:00,74.0,-99.9,-100.00,WNW,295,8.0,18.0,-999,0.00,,,-99.99,,2013-06-18 00:53:00,
2013-06-17 19:00:00,72.0,-99.9,-100.00,WNW,300,8.0,17.0,-999,0.00,,,-99.99,,2013-06-18 01:00:00,
2013-06-17 19:34:00,72.0,-99.9,-100.00,WNW,300,8.0,17.0,-999,0.00,,,-99.99,,2013-06-18 01:34:00,
2013-06-17 19:44:00,72.0,-99.9,-100.00,WNW,300,8.0,17.0,-999,0.00,,,-99.99,,2013-06-18 01:44:00,
2013-06-17 19:54:00,72.0,-99.9,-100.00,WNW,300,8.0,17.0,-999,0.00,,,-99.99,,2013-06-18 01:54:00,
2013-06-17 20:00:00,67.0,-99.9,-100.00,WNW,295,4.0,12.0,-999,0.00,,,-99.99,,2013-06-18 02:00:00,
2013-06-17 20:34:00,67.0,-99.9,-100.00,WNW,295,4.0,12.0,-999,0.00,,,-99.99,,2013-06-18 02:34:00,
2013-06-17 20:43:00,67.0,-99.9,-100.00,WNW,295,4.0,12.0,-999,0.00,,,-99.99,,2013-06-18 02:43:00,
2013-06-17 20:53:00,67.0,-99.9,-100.00,WNW,295,4.0,12.0,-999,0.00,,,-99.99,,2013-06-18 02:53:00,
2013-06-17 21:00:00,58.0,-99.9,-100.00,ESE,108,2.0,6.0,-999,0.00,,,-99.99,,2013-06-18 03:00:00,
2013-06-17 21:34:00,58.0,-99.9,-100.00,ESE,108,2.0,6.0,-999,0.00,,,-99.99,,2013-06-18 03:34:00,
2013-06-17 21:43:00,58.0,-99.9,-100.00,ESE,108,2.0,6.0,-999,0.00,,,-99.99,,2013-06-18 03:43:00,
2013-06-17 21:53:00,58.0,-99.9,-100.00,ESE,108,2.0,6.0,-999,0.00,,,-99.99,,2013-06-18 03:53:00,
2013-06-17 22:00:00,56.0,-99.9,-100.00,East,94,4.0,8.0,-999,0.00,,,-99.99,,2013-06-18 04:00:00,
2013-06-17 22:34:00,56.0,-99.9,-100.00,East,94,4.0,8.0,-999,0.00,,,-99.99,,2013-06-18 04:34:00,
2013-06-17 22:43:00,56.0,-99.9,-100.00,East,94,4.0,8.0,-999,0.00,,,-99.99,,2013-06-18 04:43:00,
2013-06-17 22:54:00,56.0,-99.9,-100.00,East,94,4.0,8.0,-999,0.00,,,-99.99,,2013-06-18 04:54:00,
2013-06-17 23:00:00,53.0,-99.9,-100.00,East,90,5.0,7.0,-999,0.00,,,-99.99,,2013-06-18 05:00:00,
2013-06-17 23:34:00,53.0,-99.9,-100.00,East,90,5.0,7.0,-999,0.00,,,-99.99,,2013-06-18 05:34:00,
2013-06-17 23:43:00,53.0,-99.9,-100.00,East,90,5.0,7.0,-999,0.00,,,-99.99,,2013-06-18 05:43:00,
2013-06-17 23:53:00,53.0,-99.9,-100.00,East,90,5.0,7.0,-999,0.00,,,-99.99,,2013-06-18 05:53:00,